sensor_id;sensor_type;location;lat;lon;timestamp;P1;durP1;ratioP1;P2;durP2;ratioP2
11618;SDS011;5865;48.776;9.280;2024-02-21T00:00:03;6.27;;;3.43;;
11618;SDS011;5865;48.776;9.280;2024-02-21T00:02:33;8.33;;;3.70;;
11618;SDS011;5865;48.776;9.280;2024-02-21T00:05:00;7.07;;;3.80;;
11618;SDS011;5865;48.776;9.280;2024-02-21T00:07:27;6.13;;;3.13;;
11618;SDS011;5865;48.776;9.280;2024-02-21T00:09:55;6.03;;;3.40;;
11618;SDS011;5865;48.776;9.280;2024-02-21T00:12:22;8.27;;;3.20;;
11618;SDS011;5865;48.776;9.280;2024-02-21T00:14:49;7.50;;;3.37;;
11618;SDS011;5865;48.776;9.280;2024-02-21T00:17:16;9.37;;;3.30;;
11618;SDS011;5865;48.776;9.280;2024-02-21T00:19:45;9.13;;;3.80;;
11618;SDS011;5865;48.776;9.280;2024-02-21T00:22:12;8.70;;;3.57;;
11618;SDS011;5865;48.776;9.280;2024-02-21T00:24:39;8.47;;;3.57;;
11618;SDS011;5865;48.776;9.280;2024-02-21T00:27:06;7.07;;;3.10;;
11618;SDS011;5865;48.776;9.280;2024-02-21T00:29:34;9.37;;;3.50;;
11618;SDS011;5865;48.776;9.280;2024-02-21T00:32:01;8.70;;;3.40;;
11618;SDS011;5865;48.776;9.280;2024-02-21T00:34:28;6.47;;;3.17;;
11618;SDS011;5865;48.776;9.280;2024-02-21T00:36:57;10.60;;;3.90;;
11618;SDS011;5865;48.776;9.280;2024-02-21T00:39:24;9.57;;;3.57;;
11618;SDS011;5865;48.776;9.280;2024-02-21T00:41:51;7.90;;;3.40;;
11618;SDS011;5865;48.776;9.280;2024-02-21T00:44:18;9.77;;;3.50;;
11618;SDS011;5865;48.776;9.280;2024-02-21T00:46:45;10.47;;;3.30;;
11618;SDS011;5865;48.776;9.280;2024-02-21T00:49:12;8.33;;;3.57;;
11618;SDS011;5865;48.776;9.280;2024-02-21T00:51:39;7.83;;;3.60;;
11618;SDS011;5865;48.776;9.280;2024-02-21T00:54:08;7.93;;;3.13;;
11618;SDS011;5865;48.776;9.280;2024-02-21T00:56:35;6.37;;;3.07;;
11618;SDS011;5865;48.776;9.280;2024-02-21T00:59:02;9.73;;;3.60;;
11618;SDS011;5865;48.776;9.280;2024-02-21T01:01:29;6.13;;;3.30;;
11618;SDS011;5865;48.776;9.280;2024-02-21T01:03:56;7.43;;;3.60;;
11618;SDS011;5865;48.776;9.280;2024-02-21T01:06:22;6.10;;;3.33;;
11618;SDS011;5865;48.776;9.280;2024-02-21T01:08:50;11.93;;;3.87;;
11618;SDS011;5865;48.776;9.280;2024-02-21T01:11:18;8.47;;;3.63;;
11618;SDS011;5865;48.776;9.280;2024-02-21T01:13:45;13.93;;;4.07;;
11618;SDS011;5865;48.776;9.280;2024-02-21T01:16:12;6.07;;;3.23;;
11618;SDS011;5865;48.776;9.280;2024-02-21T01:18:39;9.77;;;3.97;;
11618;SDS011;5865;48.776;9.280;2024-02-21T01:21:07;7.60;;;4.00;;
11618;SDS011;5865;48.776;9.280;2024-02-21T01:23:35;10.73;;;3.73;;
11618;SDS011;5865;48.776;9.280;2024-02-21T01:26:02;10.13;;;3.70;;
11618;SDS011;5865;48.776;9.280;2024-02-21T01:28:31;7.07;;;3.33;;
11618;SDS011;5865;48.776;9.280;2024-02-21T01:30:58;12.70;;;4.27;;
11618;SDS011;5865;48.776;9.280;2024-02-21T01:33:25;9.70;;;4.10;;
11618;SDS011;5865;48.776;9.280;2024-02-21T01:35:52;9.20;;;3.60;;
11618;SDS011;5865;48.776;9.280;2024-02-21T01:38:19;7.63;;;3.97;;
11618;SDS011;5865;48.776;9.280;2024-02-21T01:40:46;7.97;;;3.47;;
11618;SDS011;5865;48.776;9.280;2024-02-21T01:43:17;9.13;;;4.00;;
11618;SDS011;5865;48.776;9.280;2024-02-21T01:45:48;8.10;;;3.63;;
11618;SDS011;5865;48.776;9.280;2024-02-21T01:48:16;9.17;;;3.80;;
11618;SDS011;5865;48.776;9.280;2024-02-21T01:50:44;9.27;;;3.67;;
11618;SDS011;5865;48.776;9.280;2024-02-21T01:53:12;7.07;;;3.30;;
11618;SDS011;5865;48.776;9.280;2024-02-21T01:55:44;12.93;;;4.17;;
11618;SDS011;5865;48.776;9.280;2024-02-21T01:58:11;7.30;;;3.40;;
11618;SDS011;5865;48.776;9.280;2024-02-21T02:00:39;12.70;;;3.60;;
11618;SDS011;5865;48.776;9.280;2024-02-21T02:03:10;7.00;;;3.07;;
11618;SDS011;5865;48.776;9.280;2024-02-21T02:05:42;13.63;;;3.43;;
11618;SDS011;5865;48.776;9.280;2024-02-21T02:08:09;9.60;;;4.23;;
11618;SDS011;5865;48.776;9.280;2024-02-21T02:10:39;9.13;;;3.67;;
11618;SDS011;5865;48.776;9.280;2024-02-21T02:13:06;8.77;;;3.90;;
11618;SDS011;5865;48.776;9.280;2024-02-21T02:15:39;7.20;;;3.47;;
11618;SDS011;5865;48.776;9.280;2024-02-21T02:18:07;6.50;;;3.20;;
11618;SDS011;5865;48.776;9.280;2024-02-21T02:20:35;10.13;;;3.37;;
11618;SDS011;5865;48.776;9.280;2024-02-21T02:23:04;5.37;;;3.33;;
11618;SDS011;5865;48.776;9.280;2024-02-21T02:25:36;9.07;;;3.40;;
11618;SDS011;5865;48.776;9.280;2024-02-21T02:28:03;8.63;;;3.07;;
11618;SDS011;5865;48.776;9.280;2024-02-21T02:30:31;7.97;;;3.50;;
11618;SDS011;5865;48.776;9.280;2024-02-21T02:32:59;8.30;;;3.53;;
11618;SDS011;5865;48.776;9.280;2024-02-21T02:35:26;6.50;;;3.30;;
11618;SDS011;5865;48.776;9.280;2024-02-21T02:37:53;7.40;;;3.30;;
11618;SDS011;5865;48.776;9.280;2024-02-21T02:40:20;6.80;;;3.47;;
11618;SDS011;5865;48.776;9.280;2024-02-21T02:42:48;9.30;;;4.07;;
11618;SDS011;5865;48.776;9.280;2024-02-21T02:45:16;6.73;;;3.20;;
11618;SDS011;5865;48.776;9.280;2024-02-21T02:47:44;7.67;;;3.23;;
11618;SDS011;5865;48.776;9.280;2024-02-21T02:50:11;7.07;;;3.23;;
11618;SDS011;5865;48.776;9.280;2024-02-21T02:52:39;7.10;;;3.17;;
11618;SDS011;5865;48.776;9.280;2024-02-21T02:55:06;5.53;;;2.97;;
11618;SDS011;5865;48.776;9.280;2024-02-21T02:57:33;8.17;;;3.53;;
11618;SDS011;5865;48.776;9.280;2024-02-21T03:00:02;6.13;;;3.10;;
11618;SDS011;5865;48.776;9.280;2024-02-21T03:02:29;8.00;;;3.30;;
11618;SDS011;5865;48.776;9.280;2024-02-21T03:04:56;5.53;;;2.90;;
11618;SDS011;5865;48.776;9.280;2024-02-21T03:07:24;5.17;;;2.83;;
11618;SDS011;5865;48.776;9.280;2024-02-21T03:09:51;7.33;;;3.07;;
11618;SDS011;5865;48.776;9.280;2024-02-21T03:12:19;7.47;;;3.30;;
11618;SDS011;5865;48.776;9.280;2024-02-21T03:14:52;6.03;;;3.00;;
11618;SDS011;5865;48.776;9.280;2024-02-21T03:17:22;6.87;;;3.30;;
11618;SDS011;5865;48.776;9.280;2024-02-21T03:19:49;12.00;;;3.63;;
11618;SDS011;5865;48.776;9.280;2024-02-21T03:22:17;8.67;;;3.50;;
11618;SDS011;5865;48.776;9.280;2024-02-21T03:24:45;5.63;;;3.00;;
11618;SDS011;5865;48.776;9.280;2024-02-21T03:27:11;7.63;;;2.80;;
11618;SDS011;5865;48.776;9.280;2024-02-21T03:29:39;6.73;;;3.10;;
11618;SDS011;5865;48.776;9.280;2024-02-21T03:32:06;6.80;;;3.03;;
11618;SDS011;5865;48.776;9.280;2024-02-21T03:34:34;5.77;;;3.13;;
11618;SDS011;5865;48.776;9.280;2024-02-21T03:37:01;8.23;;;3.43;;
11618;SDS011;5865;48.776;9.280;2024-02-21T03:39:30;7.87;;;3.07;;
11618;SDS011;5865;48.776;9.280;2024-02-21T03:41:57;7.63;;;3.10;;
11618;SDS011;5865;48.776;9.280;2024-02-21T03:44:29;6.00;;;2.97;;
11618;SDS011;5865;48.776;9.280;2024-02-21T03:46:57;7.07;;;3.20;;
11618;SDS011;5865;48.776;9.280;2024-02-21T03:49:24;8.97;;;3.10;;
11618;SDS011;5865;48.776;9.280;2024-02-21T03:51:52;7.17;;;2.73;;
11618;SDS011;5865;48.776;9.280;2024-02-21T03:54:20;6.50;;;3.20;;
11618;SDS011;5865;48.776;9.280;2024-02-21T03:56:47;5.77;;;3.07;;
11618;SDS011;5865;48.776;9.280;2024-02-21T03:59:16;8.27;;;3.10;;
11618;SDS011;5865;48.776;9.280;2024-02-21T04:01:43;9.93;;;2.93;;
11618;SDS011;5865;48.776;9.280;2024-02-21T04:04:10;8.43;;;3.33;;
11618;SDS011;5865;48.776;9.280;2024-02-21T04:06:45;6.93;;;3.00;;
11618;SDS011;5865;48.776;9.280;2024-02-21T04:09:14;6.80;;;2.50;;
11618;SDS011;5865;48.776;9.280;2024-02-21T04:11:41;8.10;;;2.63;;
11618;SDS011;5865;48.776;9.280;2024-02-21T04:14:09;4.60;;;2.40;;
11618;SDS011;5865;48.776;9.280;2024-02-21T04:16:36;5.97;;;2.60;;
11618;SDS011;5865;48.776;9.280;2024-02-21T04:19:04;5.07;;;2.30;;
11618;SDS011;5865;48.776;9.280;2024-02-21T04:21:31;7.40;;;2.67;;
11618;SDS011;5865;48.776;9.280;2024-02-21T04:23:58;5.93;;;2.40;;
11618;SDS011;5865;48.776;9.280;2024-02-21T04:26:28;4.57;;;2.40;;
11618;SDS011;5865;48.776;9.280;2024-02-21T04:28:55;6.93;;;2.80;;
11618;SDS011;5865;48.776;9.280;2024-02-21T04:31:22;5.80;;;2.60;;
11618;SDS011;5865;48.776;9.280;2024-02-21T04:33:49;8.20;;;2.60;;
11618;SDS011;5865;48.776;9.280;2024-02-21T04:36:16;5.77;;;2.43;;
11618;SDS011;5865;48.776;9.280;2024-02-21T04:38:43;6.73;;;2.40;;
11618;SDS011;5865;48.776;9.280;2024-02-21T04:41:11;5.53;;;2.40;;
11618;SDS011;5865;48.776;9.280;2024-02-21T04:43:39;4.90;;;2.43;;
11618;SDS011;5865;48.776;9.280;2024-02-21T04:46:06;6.47;;;2.33;;
11618;SDS011;5865;48.776;9.280;2024-02-21T04:48:33;8.80;;;2.60;;
11618;SDS011;5865;48.776;9.280;2024-02-21T04:51:00;5.20;;;2.50;;
11618;SDS011;5865;48.776;9.280;2024-02-21T04:53:27;8.60;;;3.03;;
11618;SDS011;5865;48.776;9.280;2024-02-21T04:55:54;9.03;;;2.90;;
11618;SDS011;5865;48.776;9.280;2024-02-21T04:58:21;5.33;;;2.63;;
11618;SDS011;5865;48.776;9.280;2024-02-21T05:00:50;5.80;;;2.70;;
11618;SDS011;5865;48.776;9.280;2024-02-21T05:03:18;8.30;;;2.73;;
11618;SDS011;5865;48.776;9.280;2024-02-21T05:05:45;5.00;;;2.30;;
11618;SDS011;5865;48.776;9.280;2024-02-21T05:08:12;5.77;;;2.90;;
11618;SDS011;5865;48.776;9.280;2024-02-21T05:10:39;10.13;;;3.97;;
11618;SDS011;5865;48.776;9.280;2024-02-21T05:13:07;5.77;;;2.80;;
11618;SDS011;5865;48.776;9.280;2024-02-21T05:15:35;4.63;;;2.57;;
11618;SDS011;5865;48.776;9.280;2024-02-21T05:18:03;8.67;;;3.20;;
11618;SDS011;5865;48.776;9.280;2024-02-21T05:20:30;6.40;;;3.20;;
11618;SDS011;5865;48.776;9.280;2024-02-21T05:22:57;7.50;;;2.77;;
11618;SDS011;5865;48.776;9.280;2024-02-21T05:25:24;6.90;;;2.50;;
11618;SDS011;5865;48.776;9.280;2024-02-21T05:27:52;10.90;;;4.10;;
11618;SDS011;5865;48.776;9.280;2024-02-21T05:30:20;4.77;;;2.77;;
11618;SDS011;5865;48.776;9.280;2024-02-21T05:32:47;6.10;;;2.40;;
11618;SDS011;5865;48.776;9.280;2024-02-21T05:35:16;7.00;;;3.17;;
11618;SDS011;5865;48.776;9.280;2024-02-21T05:37:43;6.40;;;3.00;;
11618;SDS011;5865;48.776;9.280;2024-02-21T05:40:12;4.07;;;2.70;;
11618;SDS011;5865;48.776;9.280;2024-02-21T05:42:39;6.40;;;2.80;;
11618;SDS011;5865;48.776;9.280;2024-02-21T05:45:06;5.77;;;2.80;;
11618;SDS011;5865;48.776;9.280;2024-02-21T05:47:33;5.33;;;2.80;;
11618;SDS011;5865;48.776;9.280;2024-02-21T05:50:00;4.73;;;2.73;;
11618;SDS011;5865;48.776;9.280;2024-02-21T05:52:29;6.27;;;2.90;;
11618;SDS011;5865;48.776;9.280;2024-02-21T05:54:56;6.63;;;2.60;;
11618;SDS011;5865;48.776;9.280;2024-02-21T05:57:23;8.40;;;2.53;;
11618;SDS011;5865;48.776;9.280;2024-02-21T05:59:50;7.37;;;2.33;;
11618;SDS011;5865;48.776;9.280;2024-02-21T06:02:17;4.43;;;2.63;;
11618;SDS011;5865;48.776;9.280;2024-02-21T06:04:45;6.63;;;2.77;;
11618;SDS011;5865;48.776;9.280;2024-02-21T06:07:12;6.03;;;2.67;;
11618;SDS011;5865;48.776;9.280;2024-02-21T06:09:41;6.97;;;2.80;;
11618;SDS011;5865;48.776;9.280;2024-02-21T06:12:08;4.83;;;2.23;;
11618;SDS011;5865;48.776;9.280;2024-02-21T06:14:35;5.73;;;2.80;;
11618;SDS011;5865;48.776;9.280;2024-02-21T06:17:02;7.43;;;2.80;;
11618;SDS011;5865;48.776;9.280;2024-02-21T06:19:29;5.93;;;2.80;;
11618;SDS011;5865;48.776;9.280;2024-02-21T06:21:56;6.33;;;2.23;;
11618;SDS011;5865;48.776;9.280;2024-02-21T06:24:23;7.37;;;2.40;;
11618;SDS011;5865;48.776;9.280;2024-02-21T06:26:52;4.30;;;2.47;;
11618;SDS011;5865;48.776;9.280;2024-02-21T06:29:19;5.80;;;3.37;;
11618;SDS011;5865;48.776;9.280;2024-02-21T06:31:46;5.43;;;2.90;;
11618;SDS011;5865;48.776;9.280;2024-02-21T06:34:13;5.97;;;2.67;;
11618;SDS011;5865;48.776;9.280;2024-02-21T06:36:40;5.77;;;2.70;;
11618;SDS011;5865;48.776;9.280;2024-02-21T06:39:07;6.17;;;2.60;;
11618;SDS011;5865;48.776;9.280;2024-02-21T06:41:36;6.93;;;2.60;;
11618;SDS011;5865;48.776;9.280;2024-02-21T06:44:05;7.10;;;2.43;;
11618;SDS011;5865;48.776;9.280;2024-02-21T06:46:32;7.60;;;3.10;;
11618;SDS011;5865;48.776;9.280;2024-02-21T06:48:59;7.10;;;3.00;;
11618;SDS011;5865;48.776;9.280;2024-02-21T06:51:26;7.40;;;3.00;;
11618;SDS011;5865;48.776;9.280;2024-02-21T06:53:54;5.73;;;2.70;;
11618;SDS011;5865;48.776;9.280;2024-02-21T06:56:22;4.93;;;2.53;;
11618;SDS011;5865;48.776;9.280;2024-02-21T06:58:53;8.10;;;3.10;;
11618;SDS011;5865;48.776;9.280;2024-02-21T07:01:22;6.13;;;2.60;;
11618;SDS011;5865;48.776;9.280;2024-02-21T07:03:49;6.53;;;2.90;;
11618;SDS011;5865;48.776;9.280;2024-02-21T07:06:17;5.93;;;3.20;;
11618;SDS011;5865;48.776;9.280;2024-02-21T07:08:44;5.50;;;2.90;;
11618;SDS011;5865;48.776;9.280;2024-02-21T07:11:11;5.40;;;2.67;;
11618;SDS011;5865;48.776;9.280;2024-02-21T07:13:38;8.60;;;3.10;;
11618;SDS011;5865;48.776;9.280;2024-02-21T07:16:06;4.67;;;2.50;;
11618;SDS011;5865;48.776;9.280;2024-02-21T07:18:35;6.60;;;2.97;;
11618;SDS011;5865;48.776;9.280;2024-02-21T07:21:02;6.57;;;2.90;;
11618;SDS011;5865;48.776;9.280;2024-02-21T07:23:29;8.30;;;2.70;;
11618;SDS011;5865;48.776;9.280;2024-02-21T07:25:56;7.97;;;3.23;;
11618;SDS011;5865;48.776;9.280;2024-02-21T07:28:24;8.57;;;2.63;;
11618;SDS011;5865;48.776;9.280;2024-02-21T07:30:51;8.17;;;2.80;;
11618;SDS011;5865;48.776;9.280;2024-02-21T07:33:18;6.57;;;2.57;;
11618;SDS011;5865;48.776;9.280;2024-02-21T07:35:47;5.70;;;2.47;;
11618;SDS011;5865;48.776;9.280;2024-02-21T07:38:14;6.87;;;2.30;;
11618;SDS011;5865;48.776;9.280;2024-02-21T07:40:44;4.87;;;2.17;;
11618;SDS011;5865;48.776;9.280;2024-02-21T07:43:11;5.73;;;2.40;;
11618;SDS011;5865;48.776;9.280;2024-02-21T07:45:41;5.13;;;1.90;;
11618;SDS011;5865;48.776;9.280;2024-02-21T07:48:08;3.60;;;2.23;;
11618;SDS011;5865;48.776;9.280;2024-02-21T07:50:36;9.07;;;3.00;;
11618;SDS011;5865;48.776;9.280;2024-02-21T07:53:08;4.40;;;2.40;;
11618;SDS011;5865;48.776;9.280;2024-02-21T07:55:35;5.43;;;2.47;;
11618;SDS011;5865;48.776;9.280;2024-02-21T07:58:03;4.57;;;2.23;;
11618;SDS011;5865;48.776;9.280;2024-02-21T08:00:30;6.63;;;2.70;;
11618;SDS011;5865;48.776;9.280;2024-02-21T08:02:58;9.07;;;3.30;;
11618;SDS011;5865;48.776;9.280;2024-02-21T08:05:25;8.57;;;3.30;;
11618;SDS011;5865;48.776;9.280;2024-02-21T08:07:55;7.10;;;3.37;;
11618;SDS011;5865;48.776;9.280;2024-02-21T08:10:24;8.30;;;3.50;;
11618;SDS011;5865;48.776;9.280;2024-02-21T08:12:51;6.33;;;3.40;;
11618;SDS011;5865;48.776;9.280;2024-02-21T08:15:19;7.33;;;3.40;;
11618;SDS011;5865;48.776;9.280;2024-02-21T08:18:04;8.50;;;3.50;;
11618;SDS011;5865;48.776;9.280;2024-02-21T08:20:34;7.80;;;3.47;;
11618;SDS011;5865;48.776;9.280;2024-02-21T08:23:02;9.97;;;3.53;;
11618;SDS011;5865;48.776;9.280;2024-02-21T08:25:31;7.90;;;3.50;;
11618;SDS011;5865;48.776;9.280;2024-02-21T08:27:59;6.93;;;3.70;;
11618;SDS011;5865;48.776;9.280;2024-02-21T08:30:26;9.33;;;3.37;;
11618;SDS011;5865;48.776;9.280;2024-02-21T08:32:54;7.60;;;3.43;;
11618;SDS011;5865;48.776;9.280;2024-02-21T08:35:21;8.93;;;3.00;;
11618;SDS011;5865;48.776;9.280;2024-02-21T08:37:49;5.83;;;2.90;;
11618;SDS011;5865;48.776;9.280;2024-02-21T08:40:17;7.70;;;3.23;;
11618;SDS011;5865;48.776;9.280;2024-02-21T08:42:47;5.60;;;2.70;;
11618;SDS011;5865;48.776;9.280;2024-02-21T08:45:15;7.03;;;2.80;;
11618;SDS011;5865;48.776;9.280;2024-02-21T08:47:42;6.77;;;2.90;;
11618;SDS011;5865;48.776;9.280;2024-02-21T08:50:10;5.03;;;2.70;;
11618;SDS011;5865;48.776;9.280;2024-02-21T08:52:37;6.30;;;2.87;;
11618;SDS011;5865;48.776;9.280;2024-02-21T08:55:05;5.40;;;2.60;;
11618;SDS011;5865;48.776;9.280;2024-02-21T09:00:23;6.23;;;2.73;;
11618;SDS011;5865;48.776;9.280;2024-02-21T09:03:02;7.13;;;2.57;;
11618;SDS011;5865;48.776;9.280;2024-02-21T09:05:38;7.20;;;3.23;;
11618;SDS011;5865;48.776;9.280;2024-02-21T09:08:06;6.13;;;2.90;;
11618;SDS011;5865;48.776;9.280;2024-02-21T09:10:33;5.27;;;3.13;;
11618;SDS011;5865;48.776;9.280;2024-02-21T09:13:01;5.10;;;2.83;;
11618;SDS011;5865;48.776;9.280;2024-02-21T09:15:39;6.17;;;2.50;;
11618;SDS011;5865;48.776;9.280;2024-02-21T09:18:07;5.50;;;2.40;;
11618;SDS011;5865;48.776;9.280;2024-02-21T09:20:37;5.93;;;2.80;;
11618;SDS011;5865;48.776;9.280;2024-02-21T09:23:13;5.37;;;2.53;;
11618;SDS011;5865;48.776;9.280;2024-02-21T09:25:57;5.67;;;2.50;;
11618;SDS011;5865;48.776;9.280;2024-02-21T09:28:29;6.87;;;2.40;;
11618;SDS011;5865;48.776;9.280;2024-02-21T09:30:59;4.73;;;1.90;;
11618;SDS011;5865;48.776;9.280;2024-02-21T09:33:29;6.67;;;2.37;;
11618;SDS011;5865;48.776;9.280;2024-02-21T09:35:56;6.20;;;2.33;;
11618;SDS011;5865;48.776;9.280;2024-02-21T09:38:23;7.80;;;2.50;;
11618;SDS011;5865;48.776;9.280;2024-02-21T09:40:53;5.87;;;2.17;;
11618;SDS011;5865;48.776;9.280;2024-02-21T09:46:24;6.30;;;2.53;;
11618;SDS011;5865;48.776;9.280;2024-02-21T09:51:49;6.37;;;2.40;;
11618;SDS011;5865;48.776;9.280;2024-02-21T09:54:16;7.50;;;2.43;;
11618;SDS011;5865;48.776;9.280;2024-02-21T09:56:45;7.97;;;2.50;;
11618;SDS011;5865;48.776;9.280;2024-02-21T09:59:13;4.13;;;2.03;;
11618;SDS011;5865;48.776;9.280;2024-02-21T10:01:43;5.00;;;2.37;;
11618;SDS011;5865;48.776;9.280;2024-02-21T10:04:14;5.10;;;2.37;;
11618;SDS011;5865;48.776;9.280;2024-02-21T10:06:47;6.03;;;2.13;;
11618;SDS011;5865;48.776;9.280;2024-02-21T10:09:22;5.70;;;2.00;;
11618;SDS011;5865;48.776;9.280;2024-02-21T10:11:54;4.53;;;1.80;;
11618;SDS011;5865;48.776;9.280;2024-02-21T10:14:22;4.57;;;2.00;;
11618;SDS011;5865;48.776;9.280;2024-02-21T10:16:57;4.57;;;2.00;;
11618;SDS011;5865;48.776;9.280;2024-02-21T10:19:44;3.90;;;2.00;;
11618;SDS011;5865;48.776;9.280;2024-02-21T10:22:12;5.20;;;2.20;;
11618;SDS011;5865;48.776;9.280;2024-02-21T10:24:46;3.57;;;1.80;;
11618;SDS011;5865;48.776;9.280;2024-02-21T10:27:19;6.70;;;2.20;;
11618;SDS011;5865;48.776;9.280;2024-02-21T10:29:52;3.87;;;1.80;;
11618;SDS011;5865;48.776;9.280;2024-02-21T10:32:24;8.10;;;1.80;;
11618;SDS011;5865;48.776;9.280;2024-02-21T10:35:00;3.93;;;1.80;;
11618;SDS011;5865;48.776;9.280;2024-02-21T10:37:28;4.73;;;1.80;;
11618;SDS011;5865;48.776;9.280;2024-02-21T10:39:55;4.73;;;1.70;;
11618;SDS011;5865;48.776;9.280;2024-02-21T10:42:24;3.57;;;1.53;;
11618;SDS011;5865;48.776;9.280;2024-02-21T10:44:56;5.30;;;1.57;;
11618;SDS011;5865;48.776;9.280;2024-02-21T10:47:31;6.40;;;2.00;;
11618;SDS011;5865;48.776;9.280;2024-02-21T10:50:02;4.13;;;1.30;;
11618;SDS011;5865;48.776;9.280;2024-02-21T10:52:40;10.27;;;1.97;;
11618;SDS011;5865;48.776;9.280;2024-02-21T10:55:13;4.27;;;1.57;;
11618;SDS011;5865;48.776;9.280;2024-02-21T10:57:44;4.63;;;1.50;;
11618;SDS011;5865;48.776;9.280;2024-02-21T11:00:17;5.83;;;1.97;;
11618;SDS011;5865;48.776;9.280;2024-02-21T11:02:59;4.57;;;1.60;;
11618;SDS011;5865;48.776;9.280;2024-02-21T11:05:28;3.53;;;1.70;;
11618;SDS011;5865;48.776;9.280;2024-02-21T11:08:01;3.53;;;1.63;;
11618;SDS011;5865;48.776;9.280;2024-02-21T11:10:45;3.83;;;1.40;;
11618;SDS011;5865;48.776;9.280;2024-02-21T11:13:12;5.53;;;1.63;;
11618;SDS011;5865;48.776;9.280;2024-02-21T11:15:40;4.03;;;1.60;;
11618;SDS011;5865;48.776;9.280;2024-02-21T11:18:10;3.77;;;1.33;;
11618;SDS011;5865;48.776;9.280;2024-02-21T11:20:39;4.67;;;1.67;;
11618;SDS011;5865;48.776;9.280;2024-02-21T11:23:07;5.37;;;1.43;;
11618;SDS011;5865;48.776;9.280;2024-02-21T11:25:36;3.00;;;1.30;;
11618;SDS011;5865;48.776;9.280;2024-02-21T11:28:03;4.30;;;1.70;;
11618;SDS011;5865;48.776;9.280;2024-02-21T11:30:35;4.33;;;1.70;;
11618;SDS011;5865;48.776;9.280;2024-02-21T11:33:06;4.55;;;1.60;;
11618;SDS011;5865;48.776;9.280;2024-02-21T11:35:36;3.60;;;1.45;;
11618;SDS011;5865;48.776;9.280;2024-02-21T11:38:10;2.88;;;1.58;;
11618;SDS011;5865;48.776;9.280;2024-02-21T11:40:41;4.13;;;1.80;;
11618;SDS011;5865;48.776;9.280;2024-02-21T11:43:09;2.97;;;1.50;;
11618;SDS011;5865;48.776;9.280;2024-02-21T11:45:36;2.20;;;1.20;;
11618;SDS011;5865;48.776;9.280;2024-02-21T11:48:05;4.65;;;1.50;;
11618;SDS011;5865;48.776;9.280;2024-02-21T11:50:35;4.03;;;1.65;;
11618;SDS011;5865;48.776;9.280;2024-02-21T11:53:06;3.20;;;1.30;;
11618;SDS011;5865;48.776;9.280;2024-02-21T11:55:34;4.57;;;1.50;;
11618;SDS011;5865;48.776;9.280;2024-02-21T11:58:01;3.95;;;1.90;;
11618;SDS011;5865;48.776;9.280;2024-02-21T12:00:33;4.53;;;1.77;;
11618;SDS011;5865;48.776;9.280;2024-02-21T12:03:00;5.55;;;1.38;;
11618;SDS011;5865;48.776;9.280;2024-02-21T12:05:28;3.67;;;1.52;;
11618;SDS011;5865;48.776;9.280;2024-02-21T12:07:57;4.47;;;1.70;;
11618;SDS011;5865;48.776;9.280;2024-02-21T12:10:25;3.43;;;1.67;;
11618;SDS011;5865;48.776;9.280;2024-02-21T12:13:04;4.87;;;1.63;;
11618;SDS011;5865;48.776;9.280;2024-02-21T12:15:32;3.50;;;1.40;;
11618;SDS011;5865;48.776;9.280;2024-02-21T12:18:03;4.90;;;1.80;;
11618;SDS011;5865;48.776;9.280;2024-02-21T12:20:30;2.88;;;1.40;;
11618;SDS011;5865;48.776;9.280;2024-02-21T12:23:08;2.70;;;1.55;;
11618;SDS011;5865;48.776;9.280;2024-02-21T12:25:36;3.92;;;1.55;;
11618;SDS011;5865;48.776;9.280;2024-02-21T12:28:07;3.00;;;1.10;;
11618;SDS011;5865;48.776;9.280;2024-02-21T12:30:42;3.15;;;1.40;;
11618;SDS011;5865;48.776;9.280;2024-02-21T12:33:10;2.47;;;1.35;;
11618;SDS011;5865;48.776;9.280;2024-02-21T12:35:39;1.90;;;1.00;;
11618;SDS011;5865;48.776;9.280;2024-02-21T12:38:08;1.75;;;1.13;;
11618;SDS011;5865;48.776;9.280;2024-02-21T12:40:36;2.70;;;1.30;;
11618;SDS011;5865;48.776;9.280;2024-02-21T12:43:04;2.47;;;1.10;;
11618;SDS011;5865;48.776;9.280;2024-02-21T12:45:32;2.10;;;1.15;;
11618;SDS011;5865;48.776;9.280;2024-02-21T12:48:02;3.90;;;1.55;;
11618;SDS011;5865;48.776;9.280;2024-02-21T12:50:30;2.35;;;1.08;;
11618;SDS011;5865;48.776;9.280;2024-02-21T12:52:57;3.65;;;1.30;;
11618;SDS011;5865;48.776;9.280;2024-02-21T12:55:26;3.45;;;1.30;;
11618;SDS011;5865;48.776;9.280;2024-02-21T12:57:54;3.60;;;1.40;;
11618;SDS011;5865;48.776;9.280;2024-02-21T13:00:22;2.58;;;1.20;;
11618;SDS011;5865;48.776;9.280;2024-02-21T13:02:52;3.08;;;1.17;;
11618;SDS011;5865;48.776;9.280;2024-02-21T13:05:20;2.97;;;1.40;;
11618;SDS011;5865;48.776;9.280;2024-02-21T13:07:48;3.05;;;1.30;;
11618;SDS011;5865;48.776;9.280;2024-02-21T13:10:15;2.17;;;1.30;;
11618;SDS011;5865;48.776;9.280;2024-02-21T13:12:45;2.92;;;1.30;;
11618;SDS011;5865;48.776;9.280;2024-02-21T13:15:12;3.40;;;1.50;;
11618;SDS011;5865;48.776;9.280;2024-02-21T13:17:41;4.22;;;1.42;;
11618;SDS011;5865;48.776;9.280;2024-02-21T13:20:10;2.65;;;1.45;;
11618;SDS011;5865;48.776;9.280;2024-02-21T13:22:38;2.95;;;1.20;;
11618;SDS011;5865;48.776;9.280;2024-02-21T13:25:05;5.65;;;1.50;;
11618;SDS011;5865;48.776;9.280;2024-02-21T13:27:34;2.13;;;1.00;;
11618;SDS011;5865;48.776;9.280;2024-02-21T13:30:03;2.03;;;1.40;;
11618;SDS011;5865;48.776;9.280;2024-02-21T13:32:32;3.03;;;1.20;;
11618;SDS011;5865;48.776;9.280;2024-02-21T13:35:00;2.47;;;1.10;;
11618;SDS011;5865;48.776;9.280;2024-02-21T13:37:28;2.95;;;1.30;;
11618;SDS011;5865;48.776;9.280;2024-02-21T13:39:55;2.75;;;1.27;;
11618;SDS011;5865;48.776;9.280;2024-02-21T13:42:23;2.88;;;1.25;;
11618;SDS011;5865;48.776;9.280;2024-02-21T13:44:52;2.13;;;1.17;;
11618;SDS011;5865;48.776;9.280;2024-02-21T13:47:21;2.65;;;1.35;;
11618;SDS011;5865;48.776;9.280;2024-02-21T13:49:49;2.58;;;1.23;;
11618;SDS011;5865;48.776;9.280;2024-02-21T13:52:17;1.98;;;1.10;;
11618;SDS011;5865;48.776;9.280;2024-02-21T13:54:46;2.25;;;1.10;;
11618;SDS011;5865;48.776;9.280;2024-02-21T13:57:13;2.30;;;1.35;;
11618;SDS011;5865;48.776;9.280;2024-02-21T13:59:39;1.88;;;1.15;;
11618;SDS011;5865;48.776;9.280;2024-02-21T14:02:08;1.42;;;0.90;;
11618;SDS011;5865;48.776;9.280;2024-02-21T14:04:36;2.95;;;1.13;;
11618;SDS011;5865;48.776;9.280;2024-02-21T14:07:04;1.92;;;1.10;;
11618;SDS011;5865;48.776;9.280;2024-02-21T14:09:31;1.35;;;1.10;;
11618;SDS011;5865;48.776;9.280;2024-02-21T14:11:58;4.18;;;1.00;;
11618;SDS011;5865;48.776;9.280;2024-02-21T14:14:30;2.28;;;0.93;;
11618;SDS011;5865;48.776;9.280;2024-02-21T14:16:58;2.10;;;1.13;;
11618;SDS011;5865;48.776;9.280;2024-02-21T14:19:26;2.50;;;1.42;;
11618;SDS011;5865;48.776;9.280;2024-02-21T14:21:55;2.83;;;1.20;;
11618;SDS011;5865;48.776;9.280;2024-02-21T14:24:23;2.58;;;1.20;;
11618;SDS011;5865;48.776;9.280;2024-02-21T14:26:53;2.47;;;1.00;;
11618;SDS011;5865;48.776;9.280;2024-02-21T14:29:20;2.55;;;1.55;;
11618;SDS011;5865;48.776;9.280;2024-02-21T14:31:48;2.95;;;1.40;;
11618;SDS011;5865;48.776;9.280;2024-02-21T14:34:15;3.50;;;1.77;;
11618;SDS011;5865;48.776;9.280;2024-02-21T14:36:45;2.35;;;1.70;;
11618;SDS011;5865;48.776;9.280;2024-02-21T14:39:14;4.22;;;2.85;;
11618;SDS011;5865;48.776;9.280;2024-02-21T14:41:42;5.50;;;2.05;;
11618;SDS011;5865;48.776;9.280;2024-02-21T14:44:09;2.38;;;1.63;;
11618;SDS011;5865;48.776;9.280;2024-02-21T14:46:37;3.85;;;1.50;;
11618;SDS011;5865;48.776;9.280;2024-02-21T14:49:04;4.53;;;1.50;;
11618;SDS011;5865;48.776;9.280;2024-02-21T14:51:31;1.20;;;1.10;;
11618;SDS011;5865;48.776;9.280;2024-02-21T14:53:59;4.40;;;1.40;;
11618;SDS011;5865;48.776;9.280;2024-02-21T14:56:27;2.42;;;1.30;;
11618;SDS011;5865;48.776;9.280;2024-02-21T14:58:56;5.10;;;1.30;;
11618;SDS011;5865;48.776;9.280;2024-02-21T15:01:24;3.03;;;1.50;;
11618;SDS011;5865;48.776;9.280;2024-02-21T15:03:51;2.03;;;1.35;;
11618;SDS011;5865;48.776;9.280;2024-02-21T15:06:18;2.60;;;1.40;;
11618;SDS011;5865;48.776;9.280;2024-02-21T15:08:46;1.77;;;1.10;;
11618;SDS011;5865;48.776;9.280;2024-02-21T15:11:15;3.03;;;1.05;;
11618;SDS011;5865;48.776;9.280;2024-02-21T15:13:44;2.58;;;1.30;;
11618;SDS011;5865;48.776;9.280;2024-02-21T15:16:13;1.70;;;1.20;;